Vango — ZCOX3 — position and weather

sailwx.info

Track history (hours):
 
Tides and Currents Weather Stations Pressure Air Temp Water Temp Dewpoint Dewpoint Depression Visibility Wind Speed Wind Dir Waves Ship Positions

Vango

Last reported at 2016-Feb-22 09:33 UTC. Time now 2016-May-26 00:31 UTC.
Position N 26°37' W 079°59'.
Warning: this ship's position is months out of date.

Length 50 m; draft 2.8 m.

Type: Pleasure craft. MMSI: 319193000.

Date/timePositionNaut miles runAvg speedWind from/ knotsBaromVisibWave heightAir tempDewpointWater temp
2016-Feb-22 09:33N 26°37' W 079°59'1211.7
2016-Feb-22 08:33N 26°26' W 079°55'1211.5
2016-Feb-22 07:33N 26°14' W 079°57'1312.9
2016-Feb-22 06:33N 26°02' W 079°53'1413.6
2016-Feb-22 05:31N 25°48' W 079°51'  
2016-Feb-19 03:33N 18°13' W 064°54'  
2016-Feb-13 12:21N 17°42' W 063°07'1315.8
2016-Feb-13 11:33N 17°51' W 062°57'6 5.9
2016-Feb-13 10:32N 17°55' W 062°52'0 0.0
2016-Feb-13 09:29N 17°55' W 062°52'0 0.0
2016-Feb-13 08:29N 17°55' W 062°52'0 0.0
2016-Feb-13 07:29N 17°55' W 062°52'0 0.0
2016-Feb-13 06:20N 17°55' W 062°52'0 0.0
2016-Feb-13 05:29N 17°55' W 062°52'0 0.0
2016-Feb-13 04:32N 17°55' W 062°52'0 0.0
2016-Feb-13 03:29N 17°55' W 062°52'0 0.0
2016-Feb-13 02:29N 17°55' W 062°52'0 0.1
2016-Feb-13 01:33N 17°55' W 062°52'1111.5
2016-Feb-13 00:33N 17°60' W 063°03'4 3.8
2016-Feb-12 23:33N 18°02' W 063°06'0 0.0
2016-Feb-12 22:33N 18°02' W 063°06'0 0.0
2016-Feb-12 21:33N 18°02' W 063°06'0 0.0
2016-Feb-12 20:33N 18°02' W 063°06'1 0.6
2016-Feb-12 19:33N 18°02' W 063°06'0 0.0
2016-Feb-12 18:33N 18°02' W 063°06'0 0.0
2016-Feb-12 17:33N 18°02' W 063°06'0 0.0
2016-Feb-12 16:33N 18°02' W 063°06'0 0.0
2016-Feb-12 15:34N 18°02' W 063°06'0 0.0
2016-Feb-12 14:33N 18°02' W 063°06'0 0.0
2016-Feb-12 13:33N 18°02' W 063°06'0 0.0
2016-Feb-12 12:33N 18°02' W 063°06'  
Track history (hours):
 
Tides and Currents Weather Stations Pressure Air Temp Water Temp Dewpoint Dewpoint Depression Visibility Wind Speed Wind Dir Waves Ship Positions

Vango

Last reported at 2016-Feb-22 09:33 UTC. Time now 2016-May-26 00:31 UTC.
Position N 26°37' W 079°59'.
Warning: this ship's position is months out of date.

Length 50 m; draft 2.8 m.

Type: Pleasure craft. MMSI: 319193000.

Date/timePositionNaut miles runAvg speedWind from/ knotsBaromVisibWave heightAir tempDewpointWater temp
2016-Feb-22 09:33N 26°37' W 079°59'1211.7
2016-Feb-22 08:33N 26°26' W 079°55'1211.5
2016-Feb-22 07:33N 26°14' W 079°57'1312.9
2016-Feb-22 06:33N 26°02' W 079°53'1413.6
2016-Feb-22 05:31N 25°48' W 079°51'  
2016-Feb-19 03:33N 18°13' W 064°54'  
2016-Feb-13 12:21N 17°42' W 063°07'1315.8
2016-Feb-13 11:33N 17°51' W 062°57'6 5.9
2016-Feb-13 10:32N 17°55' W 062°52'0 0.0
2016-Feb-13 09:29N 17°55' W 062°52'0 0.0
2016-Feb-13 08:29N 17°55' W 062°52'0 0.0
2016-Feb-13 07:29N 17°55' W 062°52'0 0.0
2016-Feb-13 06:20N 17°55' W 062°52'0 0.0
2016-Feb-13 05:29N 17°55' W 062°52'0 0.0
2016-Feb-13 04:32N 17°55' W 062°52'0 0.0
2016-Feb-13 03:29N 17°55' W 062°52'0 0.0
2016-Feb-13 02:29N 17°55' W 062°52'0 0.1
2016-Feb-13 01:33N 17°55' W 062°52'1111.5
2016-Feb-13 00:33N 17°60' W 063°03'4 3.8
2016-Feb-12 23:33N 18°02' W 063°06'0 0.0
2016-Feb-12 22:33N 18°02' W 063°06'0 0.0
2016-Feb-12 21:33N 18°02' W 063°06'0 0.0
2016-Feb-12 20:33N 18°02' W 063°06'1 0.6
2016-Feb-12 19:33N 18°02' W 063°06'0 0.0
2016-Feb-12 18:33N 18°02' W 063°06'0 0.0
2016-Feb-12 17:33N 18°02' W 063°06'0 0.0
2016-Feb-12 16:33N 18°02' W 063°06'0 0.0
2016-Feb-12 15:34N 18°02' W 063°06'0 0.0
2016-Feb-12 14:33N 18°02' W 063°06'0 0.0
2016-Feb-12 13:33N 18°02' W 063°06'0 0.0
2016-Feb-12 12:33N 18°02' W 063°06'  

Dump ship's entire track history